createdAt,value
2022-11-07T00:00:56.804Z,101312.63
2022-11-07T00:03:29.500Z,101314.81
2022-11-07T00:06:00.126Z,101319.52
2022-11-07T00:08:33.063Z,101322.65
2022-11-07T00:11:06.557Z,101325.70
2022-11-07T00:13:38.947Z,101325.48
2022-11-07T00:16:12.730Z,101321.83
2022-11-07T00:18:45.299Z,101322.08
2022-11-07T00:21:17.834Z,101318.83
2022-11-07T00:23:50.207Z,101318.67
2022-11-07T00:26:22.673Z,101317.06
2022-11-07T00:28:55.157Z,101318.80
2022-11-07T00:31:25.941Z,101321.21
2022-11-07T00:33:58.540Z,101320.65
2022-11-07T00:36:31.925Z,101323.34
2022-11-07T00:39:04.812Z,101322.81
2022-11-07T00:41:37.580Z,101318.41
2022-11-07T00:44:10.217Z,101316.03
2022-11-07T00:46:40.920Z,101318.17
2022-11-07T00:49:13.424Z,101319.36
2022-11-07T00:51:45.777Z,101317.17
2022-11-07T00:54:18.138Z,101316.53
2022-11-07T00:56:50.615Z,101316.91
2022-11-07T00:59:23.135Z,101317.75
2022-11-07T01:01:55.741Z,101315.12
2022-11-07T01:04:45.873Z,101315.13
2022-11-07T01:07:18.464Z,101313.35
2022-11-07T01:09:49.227Z,101309.77
2022-11-07T01:12:21.696Z,101310.35
2022-11-07T01:14:52.385Z,101311.83
2022-11-07T01:17:24.702Z,101312.55
2022-11-07T01:19:57.172Z,101309.76
2022-11-07T01:22:29.494Z,101308.17
2022-11-07T01:25:02.015Z,101307.33
2022-11-07T01:27:32.746Z,101312.31
2022-11-07T01:30:05.606Z,101311.20
2022-11-07T01:32:38.155Z,101309.48
2022-11-07T01:35:09.489Z,101310.06
2022-11-07T01:37:41.950Z,101308.31
2022-11-07T01:40:15.636Z,101311.15
2022-11-07T01:42:47.913Z,101309.52
2022-11-07T01:45:24.097Z,101310.59
2022-11-07T01:47:57.602Z,101310.78
2022-11-07T01:50:29.985Z,101308.14
2022-11-07T01:53:00.728Z,101307.93
2022-11-07T01:55:35.399Z,101311.34
2022-11-07T01:58:10.083Z,101310.84
2022-11-07T02:00:42.388Z,101311.10
2022-11-07T02:03:17.525Z,101314.75
2022-11-07T02:05:53.299Z,101313.78
2022-11-07T02:08:25.805Z,101312.99
2022-11-07T02:10:56.666Z,101316.38
2022-11-07T02:13:32.279Z,101314.80
2022-11-07T02:16:05.367Z,101315.23
2022-11-07T02:18:38.657Z,101311.25
2022-11-07T02:21:16.328Z,101310.39
2022-11-07T02:23:53.062Z,101308.22
2022-11-07T02:26:25.779Z,101308.41
2022-11-07T02:28:58.513Z,101309.06
2022-11-07T02:31:30.774Z,101311.97
2022-11-07T02:34:03.198Z,101313.45
2022-11-07T02:36:36.242Z,101316.11
2022-11-07T02:39:08.668Z,101311.93
2022-11-07T02:41:41.197Z,101308.11
2022-11-07T02:44:14.431Z,101307.15
2022-11-07T02:46:46.869Z,101305.21
2022-11-07T02:49:19.194Z,101305.80
2022-11-07T02:51:51.566Z,101299.99
2022-11-07T02:54:23.945Z,101299.05
2022-11-07T02:56:56.284Z,101303.58
2022-11-07T02:59:28.686Z,101312.75
2022-11-07T03:02:01.033Z,101320.22
2022-11-07T03:04:33.917Z,101321.36
2022-11-07T03:07:04.587Z,101324.62
2022-11-07T03:09:36.967Z,101329.21
2022-11-07T03:12:09.590Z,101327.41
2022-11-07T03:14:42.363Z,101324.21
2022-11-07T03:17:14.815Z,101320.79
2022-11-07T03:19:47.903Z,101321.32
2022-11-07T03:22:20.637Z,101320.75
2022-11-07T03:24:53.131Z,101323.96
2022-11-07T03:27:25.619Z,101321.16
2022-11-07T03:29:57.886Z,101319.16
2022-11-07T03:32:30.939Z,101318.88
2022-11-07T03:35:03.340Z,101321.55
2022-11-07T03:37:35.791Z,101320.41
2022-11-07T03:40:09.931Z,101320.28
2022-11-07T03:42:43.155Z,101320.98
2022-11-07T03:45:16.983Z,101319.27
2022-11-07T03:47:50.960Z,101320.02
2022-11-07T03:50:24.883Z,101321.60
2022-11-07T03:52:58.677Z,101317.91
2022-11-07T03:55:31.167Z,101317.41
2022-11-07T03:58:03.638Z,101317.91
2022-11-07T04:00:36.165Z,101317.06
2022-11-07T04:03:07.321Z,101317.17
2022-11-07T04:05:39.553Z,101317.50
2022-11-07T04:08:11.791Z,101315.63
2022-11-07T04:10:44.927Z,101317.86
2022-11-07T04:13:31.239Z,101318.18
2022-11-07T04:16:20.856Z,101312.67
2022-11-07T04:18:53.952Z,101312.63
2022-11-07T04:21:26.930Z,101309.70
2022-11-07T04:23:57.571Z,101315.02
2022-11-07T04:26:48.158Z,101311.69
2022-11-07T04:29:20.735Z,101315.64
2022-11-07T04:31:53.984Z,101312.89
2022-11-07T04:34:26.459Z,101309.89
2022-11-07T04:37:00.529Z,101309.86
2022-11-07T04:39:34.065Z,101313.44
2022-11-07T04:42:07.638Z,101312.30
2022-11-07T04:44:40.185Z,101308.61
2022-11-07T04:47:11.441Z,101313.72
2022-11-07T04:49:43.755Z,101314.53
2022-11-07T04:52:16.535Z,101315.27
2022-11-07T04:54:49.745Z,101315.60
2022-11-07T04:57:22.112Z,101316.71
2022-11-07T04:59:58.282Z,101317.28
2022-11-07T05:02:30.967Z,101323.14
2022-11-07T05:05:06.038Z,101324.32
2022-11-07T05:07:39.893Z,101324.32
2022-11-07T05:10:20.653Z,101326.96
2022-11-07T05:12:54.412Z,101330.84
2022-11-07T05:15:27.716Z,101332.09
2022-11-07T05:18:02.280Z,101336.73
2022-11-07T05:20:38.180Z,101336.29
2022-11-07T05:23:19.954Z,101336.41
2022-11-07T05:25:54.556Z,101344.02
2022-11-07T05:28:36.935Z,101342.23
2022-11-07T05:31:13.678Z,101341.70
2022-11-07T05:33:50.451Z,101342.98
2022-11-07T05:36:26.665Z,101344.89
2022-11-07T05:38:59.961Z,101346.92
2022-11-07T05:41:33.663Z,101354.16
2022-11-07T05:44:09.778Z,101355.95
2022-11-07T05:46:43.720Z,101355.52
2022-11-07T05:49:17.340Z,101356.89
2022-11-07T05:51:51.679Z,101364.92
2022-11-07T05:54:28.332Z,101366.90
2022-11-07T05:57:01.619Z,101371.31
2022-11-07T05:59:35.123Z,101372.17
2022-11-07T06:02:09.008Z,101372.41
2022-11-07T06:13:34.172Z,101382.85
2022-11-07T06:16:03.209Z,101396.09
2022-11-07T06:18:41.333Z,101401.58
2022-11-07T06:21:11.145Z,101411.63
2022-11-07T06:23:40.181Z,101413.08
2022-11-07T06:26:10.476Z,101423.25
2022-11-07T06:28:39.958Z,101423.08
2022-11-07T06:31:10.044Z,101427.55
2022-11-07T06:33:39.295Z,101430.80
2022-11-07T06:36:11.343Z,101432.52
2022-11-07T06:38:41.316Z,101435.50
2022-11-07T06:41:12.080Z,101434.96
2022-11-07T06:43:41.533Z,101438.42
2022-11-07T06:46:12.371Z,101434.95
2022-11-07T06:48:41.299Z,101436.52
2022-11-07T06:51:11.261Z,101442.39
2022-11-07T06:53:40.325Z,101443.83
2022-11-07T06:56:15.375Z,101444.63
2022-11-07T06:58:46.302Z,101446.77
2022-11-07T07:01:17.251Z,101449.33
2022-11-07T07:03:46.287Z,101453.14
2022-11-07T07:06:17.158Z,101454.25
2022-11-07T07:08:46.397Z,101448.84
2022-11-07T07:11:16.354Z,101448.08
2022-11-07T07:13:45.323Z,101446.34
2022-11-07T07:16:14.251Z,101447.45
2022-11-07T07:18:43.151Z,101447.05
2022-11-07T07:21:13.611Z,101444.29
2022-11-07T07:23:42.462Z,101448.99
2022-11-07T07:26:13.500Z,101451.63
2022-11-07T07:28:42.633Z,101450.98
2022-11-07T07:31:20.869Z,101453.08
2022-11-07T07:33:49.982Z,101456.80
2022-11-07T07:36:21.166Z,101457.55
2022-11-07T07:38:50.453Z,101460.29
2022-11-07T07:41:19.794Z,101464.33
2022-11-07T07:43:48.722Z,101465.66
2022-11-07T07:46:21.648Z,101470.32
2022-11-07T07:48:50.427Z,101466.30
2022-11-07T07:51:19.292Z,101467.89
2022-11-07T07:53:48.105Z,101469.94
2022-11-07T07:56:17.073Z,101475.02
2022-11-07T07:58:46.004Z,101475.83
2022-11-07T08:01:14.892Z,101470.83
2022-11-07T08:04:01.794Z,101472.03
2022-11-07T08:06:33.638Z,101469.30
2022-11-07T08:09:02.784Z,101471.05
2022-11-07T08:11:31.691Z,101471.37
2022-11-07T08:14:01.735Z,101473.13
2022-11-07T08:16:30.766Z,101478.48
2022-11-07T08:18:59.628Z,101480.73
2022-11-07T08:21:28.454Z,101485.45
2022-11-07T08:23:57.274Z,101489.21
2022-11-07T08:26:26.190Z,101490.20
2022-11-07T08:28:55.159Z,101493.99
2022-11-07T08:31:24.248Z,101493.23
2022-11-07T08:33:53.283Z,101488.74
2022-11-07T08:36:22.267Z,101490.72
2022-11-07T08:38:51.132Z,101491.64
2022-11-07T08:41:22.333Z,101491.19
2022-11-07T08:43:51.304Z,101486.90
2022-11-07T08:46:20.064Z,101482.20
2022-11-07T08:48:48.896Z,101481.36
2022-11-07T08:51:17.751Z,101481.83
2022-11-07T08:53:46.580Z,101481.86
2022-11-07T08:56:15.443Z,101477.27
2022-11-07T08:58:44.500Z,101476.74
2022-11-07T09:01:13.434Z,101473.70
2022-11-07T09:03:50.301Z,101476.77
2022-11-07T09:06:22.298Z,101485.64
2022-11-07T09:08:51.287Z,101486.96
2022-11-07T09:11:21.381Z,101488.23
2022-11-07T09:13:50.372Z,101483.53
2022-11-07T09:16:19.572Z,101483.70
2022-11-07T09:18:49.529Z,101483.77
2022-11-07T09:21:22.494Z,101482.20
2022-11-07T09:23:51.999Z,101477.95
2022-11-07T09:26:20.844Z,101478.59
2022-11-07T09:28:52.891Z,101478.02
2022-11-07T09:31:23.987Z,101474.23
2022-11-07T09:33:52.660Z,101472.40
2022-11-07T09:36:23.548Z,101472.48
2022-11-07T09:38:55.479Z,101468.99
2022-11-07T09:41:31.546Z,101467.14
2022-11-07T09:44:10.365Z,101460.54
2022-11-07T09:46:53.497Z,101456.69
2022-11-07T09:49:25.581Z,101450.54
2022-11-07T09:51:58.651Z,101446.70
2022-11-07T09:54:29.561Z,101443.52
2022-11-07T09:56:59.547Z,101439.81
2022-11-07T09:59:32.032Z,101438.19
2022-11-07T10:01:59.832Z,101440.85
2022-11-07T10:04:28.688Z,101438.83
2022-11-07T10:07:02.190Z,101436.45
2022-11-07T10:09:37.767Z,101434.67
2022-11-07T10:12:14.978Z,101431.34
2022-11-07T10:14:51.714Z,101427.09
2022-11-07T10:17:24.292Z,101421.98
2022-11-07T10:20:07.220Z,101420.20
2022-11-07T10:22:45.344Z,101413.73
2022-11-07T10:25:27.592Z,101409.95
2022-11-07T10:28:05.379Z,101407.92
2022-11-07T10:30:34.844Z,101398.42
2022-11-07T10:33:06.840Z,101396.58
2022-11-07T10:35:39.125Z,101390.24
2022-11-07T10:38:15.962Z,101392.46
2022-11-07T10:40:46.876Z,101387.94
2022-11-07T10:43:19.740Z,101387.52
2022-11-07T10:45:48.792Z,101381.49
2022-11-07T10:48:17.935Z,101373.93
2022-11-07T10:50:52.873Z,101374.06
2022-11-07T10:53:23.183Z,101370.94
2022-11-07T10:55:53.357Z,101360.95
2022-11-07T10:58:23.969Z,101355.44
2022-11-07T11:01:01.036Z,101353.81
2022-11-07T11:03:43.900Z,101351.41
2022-11-07T11:06:23.816Z,101348.59
2022-11-07T11:08:53.541Z,101340.96
2022-11-07T11:11:31.665Z,101336.07
2022-11-07T11:14:05.705Z,101333.76
2022-11-07T11:16:38.047Z,101334.05
2022-11-07T11:19:16.435Z,101335.81
2022-11-07T11:21:47.286Z,101329.42
2022-11-07T11:24:25.391Z,101327.11
2022-11-07T11:26:56.234Z,101322.26
2022-11-07T11:29:36.667Z,101318.32
2022-11-07T11:32:15.848Z,101318.47
2022-11-07T11:34:53.110Z,101317.98
2022-11-07T11:37:23.255Z,101316.87
2022-11-07T11:40:06.496Z,101313.68
2022-11-07T11:42:45.747Z,101311.76
2022-11-07T11:45:18.412Z,101313.77
2022-11-07T11:47:54.503Z,101315.30
2022-11-07T11:50:29.868Z,101316.78
2022-11-07T11:52:59.273Z,101316.98
2022-11-07T11:55:33.905Z,101315.50
2022-11-07T11:58:10.988Z,101314.08
2022-11-07T12:00:46.738Z,101306.52
2022-11-07T12:03:38.554Z,101308.05
2022-11-07T12:06:12.607Z,101307.45
2022-11-07T12:09:05.826Z,101308.05
2022-11-07T12:11:38.854Z,101305.92
2022-11-07T12:14:25.432Z,101303.17
2022-11-07T12:16:57.914Z,101301.25
2022-11-07T12:19:30.827Z,101302.12
2022-11-07T12:22:06.614Z,101295.85
2022-11-07T12:24:44.333Z,101296.16
2022-11-07T12:27:24.129Z,101294.59
2022-11-07T12:30:02.119Z,101292.48
2022-11-07T12:32:38.224Z,101289.40
2022-11-07T12:35:21.576Z,101288.67
2022-11-07T12:38:02.894Z,101282.98
2022-11-07T12:40:43.178Z,101283.79
2022-11-07T12:43:23.388Z,101285.22
2022-11-07T12:45:57.422Z,101284.54
2022-11-07T12:48:59.161Z,101281.43
2022-11-07T12:51:39.763Z,101274.33
2022-11-07T12:54:32.416Z,101275.52
2022-11-07T12:57:01.441Z,101268.30
2022-11-07T12:59:32.652Z,101267.47
2022-11-07T13:02:05.520Z,101267.14
2022-11-07T13:04:42.595Z,101264.94
2022-11-07T13:07:22.642Z,101265.98
2022-11-07T13:09:57.308Z,101269.96
2022-11-07T13:12:34.775Z,101269.23
2022-11-07T13:15:06.431Z,101266.12
2022-11-07T13:17:41.502Z,101268.29
2022-11-07T13:20:29.623Z,101267.02
2022-11-07T13:23:01.830Z,101264.49
2022-11-07T13:25:35.092Z,101265.96
2022-11-07T13:28:25.819Z,101263.72
2022-11-07T13:31:02.297Z,101259.27
2022-11-07T13:33:37.817Z,101254.17
2022-11-07T13:36:15.864Z,101260.80
2022-11-07T13:38:51.529Z,101261.75
2022-11-07T13:41:21.927Z,101261.42
2022-11-07T13:43:57.357Z,101257.92
2022-11-07T13:46:31.875Z,101259.92
2022-11-07T13:49:05.201Z,101256.29
2022-11-07T13:51:38.180Z,101253.80
2022-11-07T13:54:14.661Z,101250.63
2022-11-07T13:56:46.810Z,101246.24
2022-11-07T13:59:26.600Z,101244.11
2022-11-07T14:01:58.268Z,101244.92
2022-11-07T14:04:32.047Z,101243.48
2022-11-07T14:13:43.134Z,101241.98
2022-11-07T14:16:22.901Z,101243.36
2022-11-07T14:19:01.860Z,101248.41
2022-11-07T14:21:36.027Z,101248.31
2022-11-07T14:24:23.988Z,101245.84
2022-11-07T14:27:05.214Z,101246.76
2022-11-07T14:29:39.155Z,101245.96
2022-11-07T14:32:19.788Z,101246.51
2022-11-07T14:35:05.076Z,101249.70
2022-11-07T14:37:44.869Z,101254.61
2022-11-07T14:40:19.738Z,101256.52
2022-11-07T14:42:54.135Z,101257.66
2022-11-07T14:46:06.078Z,101258.94
2022-11-07T14:48:22.021Z,101259.05
2022-11-07T14:50:54.244Z,101260.59
2022-11-07T14:53:28.214Z,101260.83
2022-11-07T14:56:04.380Z,101260.73
2022-11-07T14:58:36.608Z,101253.19
2022-11-07T15:01:14.380Z,101253.50
2022-11-07T15:03:56.463Z,101256.62
2022-11-07T15:06:35.828Z,101256.11
2022-11-07T15:09:09.431Z,101261.91
2022-11-07T15:11:43.186Z,101263.20
2022-11-07T15:14:26.045Z,101261.77
2022-11-07T15:17:00.801Z,101260.54
2022-11-07T15:19:50.668Z,101257.25
2022-11-07T15:22:33.363Z,101261.31
2022-11-07T15:25:23.688Z,101259.55
2022-11-07T15:30:04.845Z,101257.98
2022-11-07T15:32:45.303Z,101260.68
2022-11-07T15:38:42.149Z,101262.43
2022-11-07T15:41:25.778Z,101263.59
2022-11-07T15:48:05.867Z,101266.70
2022-11-07T15:48:08.013Z,101263.75
2022-11-07T15:50:44.758Z,101263.67
2022-11-07T15:53:22.795Z,101261.80
2022-11-07T15:55:56.790Z,101262.95
2022-11-07T15:58:30.795Z,101267.83
2022-11-07T16:01:03.635Z,101275.09
2022-11-07T16:03:36.350Z,101276.89
2022-11-07T16:06:18.147Z,101278.25
2022-11-07T16:08:50.462Z,101281.23
2022-11-07T16:11:22.927Z,101282.81
2022-11-07T16:14:14.755Z,101284.78
2022-11-07T16:16:47.363Z,101285.92
2022-11-07T16:19:21.609Z,101289.79
2022-11-07T16:21:53.890Z,101291.38
2022-11-07T16:24:26.014Z,101286.31
2022-11-07T16:26:58.566Z,101291.20
2022-11-07T16:29:31.003Z,101291.05
2022-11-07T16:32:03.319Z,101299.92
2022-11-07T16:34:35.901Z,101299.88
2022-11-07T16:37:14.676Z,101301.86
2022-11-07T16:39:47.292Z,101301.30
2022-11-07T16:42:21.144Z,101300.64
2022-11-07T16:44:56.111Z,101297.62
2022-11-07T16:50:15.943Z,101298.98
2022-11-07T16:52:55.899Z,101303.23
2022-11-07T16:55:28.985Z,101300.54
2022-11-07T16:58:01.570Z,101300.33
2022-11-07T17:00:35.342Z,101299.91
2022-11-07T17:03:10.753Z,101295.86
2022-11-07T17:05:44.830Z,101297.55
2022-11-07T17:08:23.797Z,101300.59
2022-11-07T17:10:56.133Z,101299.72
2022-11-07T17:13:31.131Z,101297.90
2022-11-07T17:16:05.924Z,101298.56
2022-11-07T17:18:49.484Z,101295.90
2022-11-07T17:21:39.634Z,101294.41
2022-11-07T17:24:21.456Z,101291.79
2022-11-07T17:26:54.471Z,101290.99
2022-11-07T17:29:41.356Z,101291.63
2022-11-07T17:32:24.002Z,101289.78
2022-11-07T17:41:18.279Z,101284.83
2022-11-07T17:43:56.103Z,101285.61
2022-11-07T17:46:30.253Z,101290.89
2022-11-07T17:49:09.582Z,101291.03
2022-11-07T17:51:48.500Z,101290.11
2022-11-07T17:54:36.420Z,101289.22
2022-11-07T17:57:14.200Z,101287.80
2022-11-07T17:59:53.928Z,101289.66
2022-11-07T18:02:47.943Z,101285.79
2022-11-07T18:05:34.269Z,101290.42
2022-11-07T18:08:38.548Z,101288.47
2022-11-07T18:14:43.786Z,101287.52
2022-11-07T18:17:22.436Z,101285.77
2022-11-07T18:19:57.769Z,101284.37
2022-11-07T18:22:35.109Z,101283.52
2022-11-07T18:25:12.167Z,101281.77
2022-11-07T18:27:50.430Z,101281.44
2022-11-07T18:30:22.961Z,101282.66
2022-11-07T18:34:04.342Z,101283.80
2022-11-07T18:39:42.480Z,101278.86
2022-11-07T18:42:40.921Z,101280.60
2022-11-07T18:45:29.686Z,101280.23
2022-11-07T18:48:16.124Z,101284.38
2022-11-07T18:50:48.679Z,101285.84
2022-11-07T18:53:26.534Z,101287.38
2022-11-07T18:56:05.643Z,101289.05
2022-11-07T18:58:49.070Z,101290.81
2022-11-07T19:01:26.639Z,101286.41
2022-11-07T19:07:18.227Z,101288.19
2022-11-07T19:09:50.602Z,101288.52
2022-11-07T19:12:23.180Z,101293.98
2022-11-07T19:14:55.620Z,101293.70
2022-11-07T19:17:28.066Z,101298.73
2022-11-07T19:19:58.685Z,101300.44
2022-11-07T19:22:32.879Z,101299.41
2022-11-07T19:25:09.970Z,101300.73
2022-11-07T19:27:47.268Z,101302.54
2022-11-07T19:30:19.993Z,101306.18
2022-11-07T19:32:58.078Z,101308.07
2022-11-07T19:35:32.948Z,101307.71
2022-11-07T19:38:09.042Z,101306.98
2022-11-07T19:40:46.086Z,101306.52
2022-11-07T19:43:32.335Z,101302.54
2022-11-07T19:46:21.885Z,101303.47
2022-11-07T19:52:52.978Z,101309.28
2022-11-07T19:55:45.978Z,101310.03
2022-11-07T19:58:18.294Z,101312.32
2022-11-07T20:00:50.854Z,101310.81
2022-11-07T20:03:21.903Z,101312.89
2022-11-07T20:05:59.545Z,101319.59
2022-11-07T20:08:32.082Z,101326.60
2022-11-07T20:11:04.705Z,101326.98
2022-11-07T20:13:47.143Z,101331.59
2022-11-07T20:16:22.613Z,101329.08
2022-11-07T20:19:07.999Z,101328.05
2022-11-07T20:21:44.908Z,101328.88
2022-11-07T20:24:17.437Z,101329.89
2022-11-07T20:26:50.677Z,101332.58
2022-11-07T20:29:23.219Z,101330.29
2022-11-07T20:31:56.624Z,101330.46
2022-11-07T20:34:30.178Z,101332.80
2022-11-07T20:37:19.422Z,101332.77
2022-11-07T20:39:53.017Z,101337.87
2022-11-07T20:42:26.490Z,101337.61
2022-11-07T20:45:15.227Z,101335.95
2022-11-07T20:47:50.691Z,101338.36
2022-11-07T20:50:23.060Z,101334.67
2022-11-07T20:52:57.515Z,101335.33
2022-11-07T20:55:41.163Z,101335.29
2022-11-07T20:58:17.693Z,101333.86
2022-11-07T21:00:50.036Z,101332.28
2022-11-07T21:03:22.357Z,101329.48
2022-11-07T21:05:56.497Z,101330.21
2022-11-07T21:08:33.136Z,101329.34
2022-11-07T21:11:11.566Z,101332.67
2022-11-07T21:13:52.369Z,101333.85
2022-11-07T21:16:25.984Z,101336.90
2022-11-07T21:18:58.388Z,101337.61
2022-11-07T21:21:32.735Z,101339.19
2022-11-07T21:24:05.064Z,101340.42
2022-11-07T21:26:40.425Z,101341.29
2022-11-07T21:29:12.818Z,101347.64
2022-11-07T21:31:45.085Z,101347.02
2022-11-07T21:34:17.460Z,101350.98
2022-11-07T21:36:49.681Z,101349.92
2022-11-07T21:39:21.941Z,101350.70
2022-11-07T21:41:54.265Z,101344.80
2022-11-07T21:44:26.512Z,101345.74
2022-11-07T21:46:58.841Z,101346.17
2022-11-07T21:49:31.320Z,101350.08
2022-11-07T21:52:03.795Z,101344.93
2022-11-07T21:54:36.052Z,101348.34
2022-11-07T21:57:08.283Z,101348.20
2022-11-07T21:59:40.605Z,101343.45
2022-11-07T22:02:14.494Z,101340.08
2022-11-07T22:04:46.795Z,101339.45
2022-11-07T22:07:19.191Z,101342.58
2022-11-07T22:09:51.396Z,101340.81
2022-11-07T22:12:23.598Z,101342.70
2022-11-07T22:14:55.810Z,101340.73
2022-11-07T22:17:28.303Z,101339.85
2022-11-07T22:19:58.920Z,101341.58
2022-11-07T22:22:31.220Z,101341.58
2022-11-07T22:25:03.486Z,101336.34
2022-11-07T22:27:37.411Z,101339.05
2022-11-07T22:30:11.446Z,101335.87
2022-11-07T22:32:45.022Z,101334.29
2022-11-07T22:35:17.428Z,101332.33
2022-11-07T22:37:49.608Z,101330.30
2022-11-07T22:40:21.978Z,101326.45
2022-11-07T22:42:52.855Z,101326.20
2022-11-07T22:45:25.185Z,101327.52
2022-11-07T22:47:57.461Z,101326.48
2022-11-07T22:50:29.662Z,101328.58
2022-11-07T22:53:02.131Z,101322.31
2022-11-07T22:55:37.540Z,101320.38
2022-11-07T22:58:11.771Z,101317.24
2022-11-07T23:00:45.594Z,101320.48
2022-11-07T23:03:19.866Z,101319.30
2022-11-07T23:05:52.440Z,101318.68
2022-11-07T23:08:22.932Z,101315.38
2022-11-07T23:11:43.464Z,101317.84
2022-11-07T23:14:00.664Z,101316.40
2022-11-07T23:16:35.014Z,101314.59
2022-11-07T23:19:10.024Z,101313.64
2022-11-07T23:21:42.735Z,101313.88
2022-11-07T23:24:15.540Z,101309.90
2022-11-07T23:26:47.808Z,101308.16
2022-11-07T23:29:22.876Z,101309.63
2022-11-07T23:31:55.533Z,101305.36
2022-11-07T23:34:26.506Z,101309.94
2022-11-07T23:36:58.838Z,101309.50
2022-11-07T23:39:31.048Z,101308.17
2022-11-07T23:42:03.213Z,101307.58
2022-11-07T23:44:55.411Z,101307.17
2022-11-07T23:47:45.472Z,101306.84
2022-11-07T23:50:35.100Z,101304.56
2022-11-07T23:53:28.726Z,101305.98
2022-11-07T23:56:00.881Z,101305.98
2022-11-07T23:58:50.460Z,101305.77
